Hinton, United Kingdom
Current Conditions -  °F | °C
As of 4:20 PM on Thursday 29 Jan 2015 (Local Time) from EGGD Reporting Station
Snow Showers Snow Showers  
Wind Chill: 20°   Ceiling: 300
Heat Index: 32°   Visibility: 0.62mi
Dew Point: 30°   Wind: 20mph
Humidity: 93%   Direction: 290°WNW
Pressure: 28.91"   Gusts: NA
Location:  51.49°N, 2.38°W
Report Text: EGGD 291620Z 29017KT 1000 R27/1300 -SHSN BKN003 00/M01 Q0979
Loading
Personal Weather Stations






























Interactive Weather Map New forecast layout! Learn more

10-Day Weather Forecast

Advertisements
Track Severe Weather on mobile